sensor_id;sensor_type;location;lat;lon;timestamp;temperature;humidity
58363;DHT22;54977;51.510;7.522;2022-08-04T00:00:22;23.10;50.70
58363;DHT22;54977;51.510;7.522;2022-08-04T00:05:29;23.10;50.80
58363;DHT22;54977;51.510;7.522;2022-08-04T00:10:35;23.00;50.40
58363;DHT22;54977;51.510;7.522;2022-08-04T00:15:40;23.00;50.50
58363;DHT22;54977;51.510;7.522;2022-08-04T00:20:43;22.90;50.50
58363;DHT22;54977;51.510;7.522;2022-08-04T00:25:47;22.90;50.60
58363;DHT22;54977;51.510;7.522;2022-08-04T00:30:50;22.80;50.90
58363;DHT22;54977;51.510;7.522;2022-08-04T00:35:53;22.70;51.00
58363;DHT22;54977;51.510;7.522;2022-08-04T00:41:02;22.70;51.20
58363;DHT22;54977;51.510;7.522;2022-08-04T00:46:26;22.60;51.50
58363;DHT22;54977;51.510;7.522;2022-08-04T00:51:41;22.60;52.10
58363;DHT22;54977;51.510;7.522;2022-08-04T00:57:02;22.50;52.30
58363;DHT22;54977;51.510;7.522;2022-08-04T01:02:12;22.40;52.60
58363;DHT22;54977;51.510;7.522;2022-08-04T01:13:36;22.30;52.90
58363;DHT22;54977;51.510;7.522;2022-08-04T01:18:51;22.30;52.80
58363;DHT22;54977;51.510;7.522;2022-08-04T01:29:34;22.20;53.30
58363;DHT22;54977;51.510;7.522;2022-08-04T01:34:42;22.10;53.70
58363;DHT22;54977;51.510;7.522;2022-08-04T01:39:49;22.00;54.00
58363;DHT22;54977;51.510;7.522;2022-08-04T01:44:54;21.90;54.00
58363;DHT22;54977;51.510;7.522;2022-08-04T01:50:04;21.90;54.40
58363;DHT22;54977;51.510;7.522;2022-08-04T01:55:08;21.80;54.60
58363;DHT22;54977;51.510;7.522;2022-08-04T02:00:13;21.80;54.80
58363;DHT22;54977;51.510;7.522;2022-08-04T02:05:16;21.70;55.10
58363;DHT22;54977;51.510;7.522;2022-08-04T02:10:26;21.60;55.10
58363;DHT22;54977;51.510;7.522;2022-08-04T02:15:38;21.60;55.30
58363;DHT22;54977;51.510;7.522;2022-08-04T02:20:45;21.60;55.40
58363;DHT22;54977;51.510;7.522;2022-08-04T02:25:56;21.50;55.30
58363;DHT22;54977;51.510;7.522;2022-08-04T02:31:12;21.60;55.50
58363;DHT22;54977;51.510;7.522;2022-08-04T02:36:21;21.60;55.40
58363;DHT22;54977;51.510;7.522;2022-08-04T02:41:26;21.50;55.60
58363;DHT22;54977;51.510;7.522;2022-08-04T02:46:31;21.50;55.60
58363;DHT22;54977;51.510;7.522;2022-08-04T02:51:36;21.40;55.90
58363;DHT22;54977;51.510;7.522;2022-08-04T02:56:38;21.30;56.10
58363;DHT22;54977;51.510;7.522;2022-08-04T03:01:43;21.30;57.00
58363;DHT22;54977;51.510;7.522;2022-08-04T03:07:23;21.20;57.50
58363;DHT22;54977;51.510;7.522;2022-08-04T03:12:46;21.20;56.60
58363;DHT22;54977;51.510;7.522;2022-08-04T03:24:18;21.20;56.50
58363;DHT22;54977;51.510;7.522;2022-08-04T03:29:52;21.20;56.30
58363;DHT22;54977;51.510;7.522;2022-08-04T03:35:16;21.20;56.60
58363;DHT22;54977;51.510;7.522;2022-08-04T03:51:27;20.90;57.00
58363;DHT22;54977;51.510;7.522;2022-08-04T04:02:43;20.90;56.90
58363;DHT22;54977;51.510;7.522;2022-08-04T04:13:43;21.00;56.50
58363;DHT22;54977;51.510;7.522;2022-08-04T04:19:22;21.10;56.10
58363;DHT22;54977;51.510;7.522;2022-08-04T04:24:53;21.20;55.90
58363;DHT22;54977;51.510;7.522;2022-08-04T04:30:07;21.30;56.60
58363;DHT22;54977;51.510;7.522;2022-08-04T04:35:22;21.20;56.00
58363;DHT22;54977;51.510;7.522;2022-08-04T04:40:43;21.30;56.30
58363;DHT22;54977;51.510;7.522;2022-08-04T04:45:54;21.30;56.40
58363;DHT22;54977;51.510;7.522;2022-08-04T04:51:07;21.30;56.30
58363;DHT22;54977;51.510;7.522;2022-08-04T04:56:27;21.30;56.70
58363;DHT22;54977;51.510;7.522;2022-08-04T05:01:50;21.30;56.70
58363;DHT22;54977;51.510;7.522;2022-08-04T05:07:27;21.30;57.10
58363;DHT22;54977;51.510;7.522;2022-08-04T05:12:47;21.40;56.90
58363;DHT22;54977;51.510;7.522;2022-08-04T05:17:54;21.50;57.00
58363;DHT22;54977;51.510;7.522;2022-08-04T05:22:59;21.60;56.80
58363;DHT22;54977;51.510;7.522;2022-08-04T05:28:07;21.70;56.70
58363;DHT22;54977;51.510;7.522;2022-08-04T05:33:13;21.70;56.50
58363;DHT22;54977;51.510;7.522;2022-08-04T05:38:19;21.70;57.10
58363;DHT22;54977;51.510;7.522;2022-08-04T05:43:23;21.80;57.30
58363;DHT22;54977;51.510;7.522;2022-08-04T05:48:28;21.90;57.40
58363;DHT22;54977;51.510;7.522;2022-08-04T05:53:33;22.00;57.30
58363;DHT22;54977;51.510;7.522;2022-08-04T05:58:35;22.20;57.10
58363;DHT22;54977;51.510;7.522;2022-08-04T06:03:40;22.40;57.00
58363;DHT22;54977;51.510;7.522;2022-08-04T06:08:42;22.60;56.80
58363;DHT22;54977;51.510;7.522;2022-08-04T06:13:50;23.00;56.10
58363;DHT22;54977;51.510;7.522;2022-08-04T06:18:54;23.60;55.20
58363;DHT22;54977;51.510;7.522;2022-08-04T06:23:58;23.90;54.00
58363;DHT22;54977;51.510;7.522;2022-08-04T06:29:01;24.10;53.50
58363;DHT22;54977;51.510;7.522;2022-08-04T06:34:06;24.40;52.70
58363;DHT22;54977;51.510;7.522;2022-08-04T06:39:09;24.60;52.80
58363;DHT22;54977;51.510;7.522;2022-08-04T06:44:12;24.90;52.30
58363;DHT22;54977;51.510;7.522;2022-08-04T06:49:16;25.10;51.60
58363;DHT22;54977;51.510;7.522;2022-08-04T06:54:19;25.30;51.40
58363;DHT22;54977;51.510;7.522;2022-08-04T06:59:29;25.60;49.80
58363;DHT22;54977;51.510;7.522;2022-08-04T07:04:31;26.10;47.10
58363;DHT22;54977;51.510;7.522;2022-08-04T07:09:33;27.10;45.50
58363;DHT22;54977;51.510;7.522;2022-08-04T07:14:38;27.80;44.70
58363;DHT22;54977;51.510;7.522;2022-08-04T07:19:40;29.30;42.10
58363;DHT22;54977;51.510;7.522;2022-08-04T07:24:44;31.40;38.10
58363;DHT22;54977;51.510;7.522;2022-08-04T07:29:48;33.10;37.40
58363;DHT22;54977;51.510;7.522;2022-08-04T07:34:50;34.50;35.80
58363;DHT22;54977;51.510;7.522;2022-08-04T07:39:53;35.50;33.30
58363;DHT22;54977;51.510;7.522;2022-08-04T07:44:56;36.40;30.60
58363;DHT22;54977;51.510;7.522;2022-08-04T07:49:58;37.00;30.70
58363;DHT22;54977;51.510;7.522;2022-08-04T07:55:00;37.80;29.50
58363;DHT22;54977;51.510;7.522;2022-08-04T08:00:05;38.30;29.50
58363;DHT22;54977;51.510;7.522;2022-08-04T08:05:09;38.40;26.70
58363;DHT22;54977;51.510;7.522;2022-08-04T08:10:13;38.50;26.80
58363;DHT22;54977;51.510;7.522;2022-08-04T08:15:18;38.30;27.50
58363;DHT22;54977;51.510;7.522;2022-08-04T08:20:20;38.20;26.50
58363;DHT22;54977;51.510;7.522;2022-08-04T08:25:22;37.90;27.50
58363;DHT22;54977;51.510;7.522;2022-08-04T08:30:25;36.70;28.50
58363;DHT22;54977;51.510;7.522;2022-08-04T08:35:32;35.70;28.50
58363;DHT22;54977;51.510;7.522;2022-08-04T08:40:42;34.80;30.20
58363;DHT22;54977;51.510;7.522;2022-08-04T08:46:01;34.00;29.70
58363;DHT22;54977;51.510;7.522;2022-08-04T08:51:19;33.60;29.50
58363;DHT22;54977;51.510;7.522;2022-08-04T08:56:31;33.30;30.30
58363;DHT22;54977;51.510;7.522;2022-08-04T09:01:49;32.90;31.50
58363;DHT22;54977;51.510;7.522;2022-08-04T09:07:14;32.80;30.70
58363;DHT22;54977;51.510;7.522;2022-08-04T09:12:26;33.10;30.60
58363;DHT22;54977;51.510;7.522;2022-08-04T09:17:36;33.10;30.00
58363;DHT22;54977;51.510;7.522;2022-08-04T09:22:46;33.00;30.40
58363;DHT22;54977;51.510;7.522;2022-08-04T09:27:52;33.10;30.40
58363;DHT22;54977;51.510;7.522;2022-08-04T09:33:06;33.30;30.00
58363;DHT22;54977;51.510;7.522;2022-08-04T09:38:15;33.60;28.90
58363;DHT22;54977;51.510;7.522;2022-08-04T09:43:31;33.60;29.10
58363;DHT22;54977;51.510;7.522;2022-08-04T09:48:43;34.50;29.00
58363;DHT22;54977;51.510;7.522;2022-08-04T09:53:54;35.30;27.60
58363;DHT22;54977;51.510;7.522;2022-08-04T09:59:08;37.00;25.60
58363;DHT22;54977;51.510;7.522;2022-08-04T10:04:13;37.90;25.60
58363;DHT22;54977;51.510;7.522;2022-08-04T10:09:42;38.60;25.00
58363;DHT22;54977;51.510;7.522;2022-08-04T10:14:51;37.60;24.50
58363;DHT22;54977;51.510;7.522;2022-08-04T10:20:06;36.80;24.90
58363;DHT22;54977;51.510;7.522;2022-08-04T10:25:16;36.10;25.50
58363;DHT22;54977;51.510;7.522;2022-08-04T10:30:22;35.60;24.70
58363;DHT22;54977;51.510;7.522;2022-08-04T10:35:31;35.60;25.90
58363;DHT22;54977;51.510;7.522;2022-08-04T10:40:38;35.60;25.20
58363;DHT22;54977;51.510;7.522;2022-08-04T10:45:48;35.30;25.50
58363;DHT22;54977;51.510;7.522;2022-08-04T10:51:01;35.30;24.50
58363;DHT22;54977;51.510;7.522;2022-08-04T10:56:09;35.30;25.10
58363;DHT22;54977;51.510;7.522;2022-08-04T11:01:18;35.30;25.90
58363;DHT22;54977;51.510;7.522;2022-08-04T11:06:26;35.40;24.60
58363;DHT22;54977;51.510;7.522;2022-08-04T11:11:31;35.50;25.20
58363;DHT22;54977;51.510;7.522;2022-08-04T11:16:38;35.10;25.30
58363;DHT22;54977;51.510;7.522;2022-08-04T11:21:48;35.60;26.80
58363;DHT22;54977;51.510;7.522;2022-08-04T11:26:59;35.80;26.80
58363;DHT22;54977;51.510;7.522;2022-08-04T11:32:02;35.80;26.80
58363;DHT22;54977;51.510;7.522;2022-08-04T11:37:10;35.90;26.60
58363;DHT22;54977;51.510;7.522;2022-08-04T11:42:18;36.10;26.20
58363;DHT22;54977;51.510;7.522;2022-08-04T11:47:29;36.60;26.50
58363;DHT22;54977;51.510;7.522;2022-08-04T11:52:37;36.70;25.70
58363;DHT22;54977;51.510;7.522;2022-08-04T11:57:40;36.70;26.00
58363;DHT22;54977;51.510;7.522;2022-08-04T12:03:23;36.40;25.80
58363;DHT22;54977;51.510;7.522;2022-08-04T12:08:44;36.60;26.00
58363;DHT22;54977;51.510;7.522;2022-08-04T12:13:56;36.80;25.70
58363;DHT22;54977;51.510;7.522;2022-08-04T12:19:07;36.80;25.10
58363;DHT22;54977;51.510;7.522;2022-08-04T12:24:16;36.70;25.60
58363;DHT22;54977;51.510;7.522;2022-08-04T12:29:21;37.00;26.30
58363;DHT22;54977;51.510;7.522;2022-08-04T12:34:28;38.90;24.90
58363;DHT22;54977;51.510;7.522;2022-08-04T12:39:35;39.30;24.20
58363;DHT22;54977;51.510;7.522;2022-08-04T12:44:40;38.10;25.10
58363;DHT22;54977;51.510;7.522;2022-08-04T12:49:44;36.90;26.70
58363;DHT22;54977;51.510;7.522;2022-08-04T12:54:52;36.10;27.40
58363;DHT22;54977;51.510;7.522;2022-08-04T12:59:54;35.60;28.30
58363;DHT22;54977;51.510;7.522;2022-08-04T13:04:59;35.00;28.60
58363;DHT22;54977;51.510;7.522;2022-08-04T13:10:11;34.70;29.30
58363;DHT22;54977;51.510;7.522;2022-08-04T13:15:16;34.50;30.10
58363;DHT22;54977;51.510;7.522;2022-08-04T13:20:25;34.70;30.10
58363;DHT22;54977;51.510;7.522;2022-08-04T13:25:29;34.60;30.20
58363;DHT22;54977;51.510;7.522;2022-08-04T13:30:32;34.10;30.40
58363;DHT22;54977;51.510;7.522;2022-08-04T13:35:35;34.30;30.90
58363;DHT22;54977;51.510;7.522;2022-08-04T13:40:45;35.40;30.40
58363;DHT22;54977;51.510;7.522;2022-08-04T13:45:48;35.10;30.00
58363;DHT22;54977;51.510;7.522;2022-08-04T13:50:51;34.70;31.10
58363;DHT22;54977;51.510;7.522;2022-08-04T13:55:56;34.80;30.90
58363;DHT22;54977;51.510;7.522;2022-08-04T14:01:04;34.70;31.10
58363;DHT22;54977;51.510;7.522;2022-08-04T14:06:11;34.60;31.10
58363;DHT22;54977;51.510;7.522;2022-08-04T14:11:16;33.90;32.10
58363;DHT22;54977;51.510;7.522;2022-08-04T14:16:19;33.40;33.60
58363;DHT22;54977;51.510;7.522;2022-08-04T14:21:22;33.70;33.00
58363;DHT22;54977;51.510;7.522;2022-08-04T14:26:27;33.30;34.00
58363;DHT22;54977;51.510;7.522;2022-08-04T14:31:29;33.10;34.20
58363;DHT22;54977;51.510;7.522;2022-08-04T14:36:38;32.80;35.00
58363;DHT22;54977;51.510;7.522;2022-08-04T14:41:49;33.20;34.80
58363;DHT22;54977;51.510;7.522;2022-08-04T14:46:53;33.00;34.20
58363;DHT22;54977;51.510;7.522;2022-08-04T14:51:56;33.20;34.40
58363;DHT22;54977;51.510;7.522;2022-08-04T14:57:04;32.90;34.90
58363;DHT22;54977;51.510;7.522;2022-08-04T15:02:06;32.70;35.70
58363;DHT22;54977;51.510;7.522;2022-08-04T15:07:09;32.10;36.20
58363;DHT22;54977;51.510;7.522;2022-08-04T15:12:12;32.10;36.60
58363;DHT22;54977;51.510;7.522;2022-08-04T15:17:14;32.00;35.70
58363;DHT22;54977;51.510;7.522;2022-08-04T15:22:17;31.70;36.10
58363;DHT22;54977;51.510;7.522;2022-08-04T15:27:21;31.40;37.00
58363;DHT22;54977;51.510;7.522;2022-08-04T15:32:25;31.20;37.00
58363;DHT22;54977;51.510;7.522;2022-08-04T15:37:41;31.10;37.80
58363;DHT22;54977;51.510;7.522;2022-08-04T15:42:48;31.00;37.50
58363;DHT22;54977;51.510;7.522;2022-08-04T15:48:31;30.80;38.20
58363;DHT22;54977;51.510;7.522;2022-08-04T15:59:58;30.50;39.40
58363;DHT22;54977;51.510;7.522;2022-08-04T16:05:28;30.40;38.60
58363;DHT22;54977;51.510;7.522;2022-08-04T16:10:38;30.30;38.70
58363;DHT22;54977;51.510;7.522;2022-08-04T16:15:47;30.30;38.60
58363;DHT22;54977;51.510;7.522;2022-08-04T16:20:49;30.40;38.50
58363;DHT22;54977;51.510;7.522;2022-08-04T16:25:52;30.40;38.00
58363;DHT22;54977;51.510;7.522;2022-08-04T16:31:00;30.30;38.90
58363;DHT22;54977;51.510;7.522;2022-08-04T16:36:03;30.30;38.40
58363;DHT22;54977;51.510;7.522;2022-08-04T16:41:06;30.10;37.90
58363;DHT22;54977;51.510;7.522;2022-08-04T16:46:09;29.90;38.40
58363;DHT22;54977;51.510;7.522;2022-08-04T16:51:11;29.60;39.00
58363;DHT22;54977;51.510;7.522;2022-08-04T16:56:14;29.40;39.60
58363;DHT22;54977;51.510;7.522;2022-08-04T17:01:19;29.30;40.00
58363;DHT22;54977;51.510;7.522;2022-08-04T17:06:33;29.30;40.80
58363;DHT22;54977;51.510;7.522;2022-08-04T17:11:35;29.40;40.50
58363;DHT22;54977;51.510;7.522;2022-08-04T17:16:40;30.10;39.70
58363;DHT22;54977;51.510;7.522;2022-08-04T17:21:42;30.50;38.80
58363;DHT22;54977;51.510;7.522;2022-08-04T17:26:46;31.20;38.30
58363;DHT22;54977;51.510;7.522;2022-08-04T17:31:49;31.40;37.70
58363;DHT22;54977;51.510;7.522;2022-08-04T17:36:51;31.10;38.10
58363;DHT22;54977;51.510;7.522;2022-08-04T17:41:54;30.90;37.70
58363;DHT22;54977;51.510;7.522;2022-08-04T17:46:58;30.60;38.20
58363;DHT22;54977;51.510;7.522;2022-08-04T17:52:07;30.40;38.70
58363;DHT22;54977;51.510;7.522;2022-08-04T17:57:20;29.50;39.40
58363;DHT22;54977;51.510;7.522;2022-08-04T18:02:24;29.60;40.30
58363;DHT22;54977;51.510;7.522;2022-08-04T18:07:34;29.50;40.00
58363;DHT22;54977;51.510;7.522;2022-08-04T18:12:36;29.40;40.70
58363;DHT22;54977;51.510;7.522;2022-08-04T18:17:42;28.70;41.80
58363;DHT22;54977;51.510;7.522;2022-08-04T18:22:46;28.50;42.00
58363;DHT22;54977;51.510;7.522;2022-08-04T18:27:50;28.40;42.10
58363;DHT22;54977;51.510;7.522;2022-08-04T18:32:53;28.10;42.80
58363;DHT22;54977;51.510;7.522;2022-08-04T18:37:55;28.00;42.80
58363;DHT22;54977;51.510;7.522;2022-08-04T18:42:57;27.80;43.20
58363;DHT22;54977;51.510;7.522;2022-08-04T18:48:00;27.50;43.70
58363;DHT22;54977;51.510;7.522;2022-08-04T18:53:02;27.20;44.80
58363;DHT22;54977;51.510;7.522;2022-08-04T18:58:04;27.00;45.90
58363;DHT22;54977;51.510;7.522;2022-08-04T19:03:07;26.50;47.10
58363;DHT22;54977;51.510;7.522;2022-08-04T19:08:10;26.40;47.40
58363;DHT22;54977;51.510;7.522;2022-08-04T19:13:12;26.40;47.50
58363;DHT22;54977;51.510;7.522;2022-08-04T19:18:16;26.40;47.90
58363;DHT22;54977;51.510;7.522;2022-08-04T19:23:17;26.30;48.20
58363;DHT22;54977;51.510;7.522;2022-08-04T19:28:19;25.90;48.80
58363;DHT22;54977;51.510;7.522;2022-08-04T19:33:23;25.70;49.10
58363;DHT22;54977;51.510;7.522;2022-08-04T19:38:25;25.50;49.70
58363;DHT22;54977;51.510;7.522;2022-08-04T19:43:29;25.20;50.30
58363;DHT22;54977;51.510;7.522;2022-08-04T19:48:32;25.00;50.60
58363;DHT22;54977;51.510;7.522;2022-08-04T19:53:34;24.90;51.10
58363;DHT22;54977;51.510;7.522;2022-08-04T19:58:36;24.80;51.20
58363;DHT22;54977;51.510;7.522;2022-08-04T20:03:40;24.90;50.90
58363;DHT22;54977;51.510;7.522;2022-08-04T20:08:43;24.80;51.40
58363;DHT22;54977;51.510;7.522;2022-08-04T20:13:45;24.60;51.80
58363;DHT22;54977;51.510;7.522;2022-08-04T20:18:48;24.50;52.20
58363;DHT22;54977;51.510;7.522;2022-08-04T20:23:51;24.60;52.10
58363;DHT22;54977;51.510;7.522;2022-08-04T20:28:53;24.40;52.90
58363;DHT22;54977;51.510;7.522;2022-08-04T20:33:56;24.30;53.20
58363;DHT22;54977;51.510;7.522;2022-08-04T20:38:58;24.00;54.10
58363;DHT22;54977;51.510;7.522;2022-08-04T20:43:59;24.00;54.40
58363;DHT22;54977;51.510;7.522;2022-08-04T20:49:03;24.00;54.40
58363;DHT22;54977;51.510;7.522;2022-08-04T20:54:05;24.00;54.10
58363;DHT22;54977;51.510;7.522;2022-08-04T20:59:06;24.10;53.90
58363;DHT22;54977;51.510;7.522;2022-08-04T21:04:10;24.00;54.50
58363;DHT22;54977;51.510;7.522;2022-08-04T21:09:30;23.80;54.80
58363;DHT22;54977;51.510;7.522;2022-08-04T21:14:32;23.80;54.80
58363;DHT22;54977;51.510;7.522;2022-08-04T21:19:35;23.70;55.00
58363;DHT22;54977;51.510;7.522;2022-08-04T21:24:37;23.70;54.80
58363;DHT22;54977;51.510;7.522;2022-08-04T21:29:39;23.60;55.20
58363;DHT22;54977;51.510;7.522;2022-08-04T21:34:43;23.50;55.90
58363;DHT22;54977;51.510;7.522;2022-08-04T21:39:44;23.50;56.60
58363;DHT22;54977;51.510;7.522;2022-08-04T21:44:46;23.60;55.90
58363;DHT22;54977;51.510;7.522;2022-08-04T21:49:49;23.60;55.90
58363;DHT22;54977;51.510;7.522;2022-08-04T21:54:51;23.70;55.80
58363;DHT22;54977;51.510;7.522;2022-08-04T21:59:53;23.70;55.70
58363;DHT22;54977;51.510;7.522;2022-08-04T22:04:56;23.50;54.60
58363;DHT22;54977;51.510;7.522;2022-08-04T22:09:58;23.60;53.20
58363;DHT22;54977;51.510;7.522;2022-08-04T22:15:00;23.50;53.60
58363;DHT22;54977;51.510;7.522;2022-08-04T22:20:06;23.40;52.80
58363;DHT22;54977;51.510;7.522;2022-08-04T22:25:09;23.30;53.20
58363;DHT22;54977;51.510;7.522;2022-08-04T22:30:11;23.20;53.50
58363;DHT22;54977;51.510;7.522;2022-08-04T22:35:16;23.10;53.60
58363;DHT22;54977;51.510;7.522;2022-08-04T22:40:18;23.10;53.20
58363;DHT22;54977;51.510;7.522;2022-08-04T22:45:19;22.90;53.60
58363;DHT22;54977;51.510;7.522;2022-08-04T22:50:23;22.80;54.10
58363;DHT22;54977;51.510;7.522;2022-08-04T22:55:25;22.70;54.00
58363;DHT22;54977;51.510;7.522;2022-08-04T23:00:27;22.70;53.90
58363;DHT22;54977;51.510;7.522;2022-08-04T23:05:30;22.40;53.90
58363;DHT22;54977;51.510;7.522;2022-08-04T23:10:32;22.70;53.60
58363;DHT22;54977;51.510;7.522;2022-08-04T23:15:34;22.70;53.70
58363;DHT22;54977;51.510;7.522;2022-08-04T23:20:37;22.80;53.50
58363;DHT22;54977;51.510;7.522;2022-08-04T23:25:42;22.70;54.20
58363;DHT22;54977;51.510;7.522;2022-08-04T23:30:45;22.50;54.00
58363;DHT22;54977;51.510;7.522;2022-08-04T23:35:49;22.30;54.50
58363;DHT22;54977;51.510;7.522;2022-08-04T23:40:50;22.30;54.40
58363;DHT22;54977;51.510;7.522;2022-08-04T23:45:52;21.90;55.60
58363;DHT22;54977;51.510;7.522;2022-08-04T23:51:01;21.50;57.70
58363;DHT22;54977;51.510;7.522;2022-08-04T23:56:07;21.20;58.10
